sensor_id;sensor_type;location;lat;lon;timestamp;temperature;humidity
20803;DHT22;10562;-33.856;151.182;2022-10-23T00:00:09;20.50;99.90
20803;DHT22;10562;-33.856;151.182;2022-10-23T00:02:40;20.40;99.90
20803;DHT22;10562;-33.856;151.182;2022-10-23T00:05:12;20.40;99.90
20803;DHT22;10562;-33.856;151.182;2022-10-23T00:07:42;20.30;99.90
20803;DHT22;10562;-33.856;151.182;2022-10-23T00:10:13;20.20;99.90
20803;DHT22;10562;-33.856;151.182;2022-10-23T00:12:45;20.20;99.90
20803;DHT22;10562;-33.856;151.182;2022-10-23T00:15:22;20.20;99.90
20803;DHT22;10562;-33.856;151.182;2022-10-23T00:17:54;20.20;99.90
20803;DHT22;10562;-33.856;151.182;2022-10-23T00:20:24;20.30;99.90
20803;DHT22;10562;-33.856;151.182;2022-10-23T00:22:55;20.50;99.90
20803;DHT22;10562;-33.856;151.182;2022-10-23T00:25:27;20.60;99.90
20803;DHT22;10562;-33.856;151.182;2022-10-23T00:27:57;20.70;99.90
20803;DHT22;10562;-33.856;151.182;2022-10-23T00:30:30;20.70;99.90
20803;DHT22;10562;-33.856;151.182;2022-10-23T00:33:01;20.80;99.90
20803;DHT22;10562;-33.856;151.182;2022-10-23T00:35:32;20.70;99.90
20803;DHT22;10562;-33.856;151.182;2022-10-23T00:38:02;20.90;99.90
20803;DHT22;10562;-33.856;151.182;2022-10-23T00:40:33;20.80;99.90
20803;DHT22;10562;-33.856;151.182;2022-10-23T00:43:05;20.70;99.90
20803;DHT22;10562;-33.856;151.182;2022-10-23T00:45:37;20.70;99.90
20803;DHT22;10562;-33.856;151.182;2022-10-23T00:48:08;20.50;99.90
20803;DHT22;10562;-33.856;151.182;2022-10-23T00:50:39;20.70;99.90
20803;DHT22;10562;-33.856;151.182;2022-10-23T00:53:11;20.90;99.90
20803;DHT22;10562;-33.856;151.182;2022-10-23T00:55:43;21.10;99.90
20803;DHT22;10562;-33.856;151.182;2022-10-23T00:58:16;21.20;99.90
20803;DHT22;10562;-33.856;151.182;2022-10-23T01:00:50;21.40;99.90
20803;DHT22;10562;-33.856;151.182;2022-10-23T01:03:22;21.60;99.90
20803;DHT22;10562;-33.856;151.182;2022-10-23T01:05:59;21.70;99.90
20803;DHT22;10562;-33.856;151.182;2022-10-23T01:08:36;22.00;99.90
20803;DHT22;10562;-33.856;151.182;2022-10-23T01:11:11;22.20;99.90
20803;DHT22;10562;-33.856;151.182;2022-10-23T01:13:48;22.30;99.90
20803;DHT22;10562;-33.856;151.182;2022-10-23T01:16:29;22.30;99.90
20803;DHT22;10562;-33.856;151.182;2022-10-23T01:19:11;22.40;99.90
20803;DHT22;10562;-33.856;151.182;2022-10-23T01:21:54;22.20;99.90
20803;DHT22;10562;-33.856;151.182;2022-10-23T01:24:43;22.30;99.90
20803;DHT22;10562;-33.856;151.182;2022-10-23T01:27:20;22.20;99.90
20803;DHT22;10562;-33.856;151.182;2022-10-23T01:30:01;22.10;99.90
20803;DHT22;10562;-33.856;151.182;2022-10-23T01:32:38;22.20;99.90
20803;DHT22;10562;-33.856;151.182;2022-10-23T01:35:14;22.20;99.90
20803;DHT22;10562;-33.856;151.182;2022-10-23T01:37:46;22.40;99.90
20803;DHT22;10562;-33.856;151.182;2022-10-23T01:40:23;22.70;99.90
20803;DHT22;10562;-33.856;151.182;2022-10-23T01:43:00;22.80;99.90
20803;DHT22;10562;-33.856;151.182;2022-10-23T01:45:38;22.90;99.90
20803;DHT22;10562;-33.856;151.182;2022-10-23T01:48:12;23.20;99.90
20803;DHT22;10562;-33.856;151.182;2022-10-23T01:50:45;23.30;99.90
20803;DHT22;10562;-33.856;151.182;2022-10-23T01:53:17;23.50;99.90
20803;DHT22;10562;-33.856;151.182;2022-10-23T01:55:49;23.70;99.90
20803;DHT22;10562;-33.856;151.182;2022-10-23T01:58:23;23.80;99.90
20803;DHT22;10562;-33.856;151.182;2022-10-23T02:00:57;23.60;99.90
20803;DHT22;10562;-33.856;151.182;2022-10-23T02:03:31;23.80;99.90
20803;DHT22;10562;-33.856;151.182;2022-10-23T02:06:03;23.70;99.90
20803;DHT22;10562;-33.856;151.182;2022-10-23T02:08:34;24.10;99.90
20803;DHT22;10562;-33.856;151.182;2022-10-23T02:11:07;24.30;99.90
20803;DHT22;10562;-33.856;151.182;2022-10-23T02:13:46;24.40;99.90
20803;DHT22;10562;-33.856;151.182;2022-10-23T02:16:23;24.60;99.90
20803;DHT22;10562;-33.856;151.182;2022-10-23T02:19:01;24.70;99.90
20803;DHT22;10562;-33.856;151.182;2022-10-23T02:21:45;24.90;99.90
20803;DHT22;10562;-33.856;151.182;2022-10-23T02:24:24;25.00;99.90
20803;DHT22;10562;-33.856;151.182;2022-10-23T02:27:00;24.80;99.90
20803;DHT22;10562;-33.856;151.182;2022-10-23T02:29:35;24.80;99.90
20803;DHT22;10562;-33.856;151.182;2022-10-23T02:32:07;24.70;99.90
20803;DHT22;10562;-33.856;151.182;2022-10-23T02:34:39;24.50;99.90
20803;DHT22;10562;-33.856;151.182;2022-10-23T02:37:10;24.30;99.90
20803;DHT22;10562;-33.856;151.182;2022-10-23T02:39:40;24.20;99.90
20803;DHT22;10562;-33.856;151.182;2022-10-23T02:42:17;24.40;99.90
20803;DHT22;10562;-33.856;151.182;2022-10-23T02:44:58;24.70;99.90
20803;DHT22;10562;-33.856;151.182;2022-10-23T02:47:49;24.50;99.90
20803;DHT22;10562;-33.856;151.182;2022-10-23T02:50:27;24.30;99.90
20803;DHT22;10562;-33.856;151.182;2022-10-23T02:53:06;24.30;99.90
20803;DHT22;10562;-33.856;151.182;2022-10-23T02:55:54;24.20;99.90
20803;DHT22;10562;-33.856;151.182;2022-10-23T02:58:33;23.80;99.90
20803;DHT22;10562;-33.856;151.182;2022-10-23T03:01:12;23.70;99.90
20803;DHT22;10562;-33.856;151.182;2022-10-23T03:03:50;23.70;99.90
20803;DHT22;10562;-33.856;151.182;2022-10-23T03:07:09;23.70;99.90
20803;DHT22;10562;-33.856;151.182;2022-10-23T03:09:40;23.80;99.90
20803;DHT22;10562;-33.856;151.182;2022-10-23T03:12:11;23.80;99.90
20803;DHT22;10562;-33.856;151.182;2022-10-23T03:14:44;23.90;99.90
20803;DHT22;10562;-33.856;151.182;2022-10-23T03:17:16;24.00;99.90
20803;DHT22;10562;-33.856;151.182;2022-10-23T03:19:47;24.10;99.90
20803;DHT22;10562;-33.856;151.182;2022-10-23T03:22:18;24.20;99.90
20803;DHT22;10562;-33.856;151.182;2022-10-23T03:24:51;24.20;99.90
20803;DHT22;10562;-33.856;151.182;2022-10-23T03:27:25;24.20;99.90
20803;DHT22;10562;-33.856;151.182;2022-10-23T03:29:56;24.00;99.90
20803;DHT22;10562;-33.856;151.182;2022-10-23T03:32:36;23.80;99.90
20803;DHT22;10562;-33.856;151.182;2022-10-23T03:35:08;23.40;99.90
20803;DHT22;10562;-33.856;151.182;2022-10-23T03:37:42;23.20;99.90
20803;DHT22;10562;-33.856;151.182;2022-10-23T03:40:12;23.00;99.90
20803;DHT22;10562;-33.856;151.182;2022-10-23T03:42:43;22.80;99.90
20803;DHT22;10562;-33.856;151.182;2022-10-23T03:45:17;22.80;99.90
20803;DHT22;10562;-33.856;151.182;2022-10-23T03:47:55;22.70;99.90
20803;DHT22;10562;-33.856;151.182;2022-10-23T03:50:30;22.70;99.90
20803;DHT22;10562;-33.856;151.182;2022-10-23T03:53:04;22.60;99.90
20803;DHT22;10562;-33.856;151.182;2022-10-23T03:55:36;22.60;99.90
20803;DHT22;10562;-33.856;151.182;2022-10-23T03:58:06;22.50;99.90
20803;DHT22;10562;-33.856;151.182;2022-10-23T04:00:37;22.60;99.90
20803;DHT22;10562;-33.856;151.182;2022-10-23T04:03:10;22.50;99.90
20803;DHT22;10562;-33.856;151.182;2022-10-23T04:05:41;22.20;99.90
20803;DHT22;10562;-33.856;151.182;2022-10-23T04:08:12;22.10;99.90
20803;DHT22;10562;-33.856;151.182;2022-10-23T04:10:43;22.00;99.90
20803;DHT22;10562;-33.856;151.182;2022-10-23T04:13:14;22.10;99.90
20803;DHT22;10562;-33.856;151.182;2022-10-23T04:15:48;22.10;99.90
20803;DHT22;10562;-33.856;151.182;2022-10-23T04:18:21;21.90;99.90
20803;DHT22;10562;-33.856;151.182;2022-10-23T04:20:52;21.80;99.90
20803;DHT22;10562;-33.856;151.182;2022-10-23T04:23:23;21.60;99.90
20803;DHT22;10562;-33.856;151.182;2022-10-23T04:25:56;21.40;99.90
20803;DHT22;10562;-33.856;151.182;2022-10-23T04:28:27;21.30;99.90
20803;DHT22;10562;-33.856;151.182;2022-10-23T04:31:01;21.30;99.90
20803;DHT22;10562;-33.856;151.182;2022-10-23T04:33:34;21.30;99.90
20803;DHT22;10562;-33.856;151.182;2022-10-23T04:36:06;21.20;99.90
20803;DHT22;10562;-33.856;151.182;2022-10-23T04:38:37;21.20;99.90
20803;DHT22;10562;-33.856;151.182;2022-10-23T04:41:09;21.30;99.90
20803;DHT22;10562;-33.856;151.182;2022-10-23T04:43:39;21.30;99.90
20803;DHT22;10562;-33.856;151.182;2022-10-23T04:46:10;21.30;99.90
20803;DHT22;10562;-33.856;151.182;2022-10-23T04:48:43;21.40;99.90
20803;DHT22;10562;-33.856;151.182;2022-10-23T04:51:14;21.30;99.90
20803;DHT22;10562;-33.856;151.182;2022-10-23T04:53:45;21.40;99.90
20803;DHT22;10562;-33.856;151.182;2022-10-23T04:56:16;21.30;99.90
20803;DHT22;10562;-33.856;151.182;2022-10-23T04:58:46;21.20;99.90
20803;DHT22;10562;-33.856;151.182;2022-10-23T05:01:18;21.20;99.90
20803;DHT22;10562;-33.856;151.182;2022-10-23T05:03:50;21.20;99.90
20803;DHT22;10562;-33.856;151.182;2022-10-23T05:06:23;21.20;99.90
20803;DHT22;10562;-33.856;151.182;2022-10-23T05:08:54;21.10;99.90
20803;DHT22;10562;-33.856;151.182;2022-10-23T05:11:25;21.10;99.90
20803;DHT22;10562;-33.856;151.182;2022-10-23T05:13:55;21.00;99.90
20803;DHT22;10562;-33.856;151.182;2022-10-23T05:16:34;20.90;99.90
20803;DHT22;10562;-33.856;151.182;2022-10-23T05:19:11;20.90;99.90
20803;DHT22;10562;-33.856;151.182;2022-10-23T05:21:45;20.80;99.90
20803;DHT22;10562;-33.856;151.182;2022-10-23T05:24:19;20.90;99.90
20803;DHT22;10562;-33.856;151.182;2022-10-23T05:26:49;20.90;99.90
20803;DHT22;10562;-33.856;151.182;2022-10-23T05:29:21;20.90;99.90
20803;DHT22;10562;-33.856;151.182;2022-10-23T05:31:55;20.90;99.90
20803;DHT22;10562;-33.856;151.182;2022-10-23T05:34:29;20.90;99.90
20803;DHT22;10562;-33.856;151.182;2022-10-23T05:37:02;20.90;99.90
20803;DHT22;10562;-33.856;151.182;2022-10-23T05:39:33;20.90;99.90
20803;DHT22;10562;-33.856;151.182;2022-10-23T05:42:04;20.90;99.90
20803;DHT22;10562;-33.856;151.182;2022-10-23T05:44:35;20.90;99.90
20803;DHT22;10562;-33.856;151.182;2022-10-23T05:47:07;20.90;99.90
20803;DHT22;10562;-33.856;151.182;2022-10-23T05:49:39;20.90;99.90
20803;DHT22;10562;-33.856;151.182;2022-10-23T05:52:11;20.80;99.90
20803;DHT22;10562;-33.856;151.182;2022-10-23T05:54:42;20.90;99.90
20803;DHT22;10562;-33.856;151.182;2022-10-23T05:57:13;20.90;99.90
20803;DHT22;10562;-33.856;151.182;2022-10-23T05:59:44;21.00;99.90
20803;DHT22;10562;-33.856;151.182;2022-10-23T06:02:14;21.20;99.90
20803;DHT22;10562;-33.856;151.182;2022-10-23T06:04:47;21.10;99.90
20803;DHT22;10562;-33.856;151.182;2022-10-23T06:07:23;21.20;99.90
20803;DHT22;10562;-33.856;151.182;2022-10-23T06:09:54;21.30;99.90
20803;DHT22;10562;-33.856;151.182;2022-10-23T06:12:25;21.20;99.90
20803;DHT22;10562;-33.856;151.182;2022-10-23T06:14:55;21.10;99.90
20803;DHT22;10562;-33.856;151.182;2022-10-23T06:17:27;21.10;99.90
20803;DHT22;10562;-33.856;151.182;2022-10-23T06:20:00;21.00;99.90
20803;DHT22;10562;-33.856;151.182;2022-10-23T06:22:30;21.00;99.90
20803;DHT22;10562;-33.856;151.182;2022-10-23T06:25:01;21.00;99.90
20803;DHT22;10562;-33.856;151.182;2022-10-23T06:27:32;21.00;99.90
20803;DHT22;10562;-33.856;151.182;2022-10-23T06:30:03;21.10;99.90
20803;DHT22;10562;-33.856;151.182;2022-10-23T06:32:34;21.10;99.90
20803;DHT22;10562;-33.856;151.182;2022-10-23T06:35:09;21.10;99.90
20803;DHT22;10562;-33.856;151.182;2022-10-23T06:37:39;21.00;99.90
20803;DHT22;10562;-33.856;151.182;2022-10-23T06:40:10;21.00;99.90
20803;DHT22;10562;-33.856;151.182;2022-10-23T06:42:41;20.80;99.90
20803;DHT22;10562;-33.856;151.182;2022-10-23T06:45:12;20.70;99.90
20803;DHT22;10562;-33.856;151.182;2022-10-23T06:47:43;20.70;99.90
20803;DHT22;10562;-33.856;151.182;2022-10-23T06:50:15;20.60;99.90
20803;DHT22;10562;-33.856;151.182;2022-10-23T06:52:47;20.60;99.90
20803;DHT22;10562;-33.856;151.182;2022-10-23T06:55:18;20.60;99.90
20803;DHT22;10562;-33.856;151.182;2022-10-23T06:57:49;20.60;99.90
20803;DHT22;10562;-33.856;151.182;2022-10-23T07:00:20;20.50;99.90
20803;DHT22;10562;-33.856;151.182;2022-10-23T07:02:51;20.50;99.90
20803;DHT22;10562;-33.856;151.182;2022-10-23T07:05:24;20.40;99.90
20803;DHT22;10562;-33.856;151.182;2022-10-23T07:07:55;20.30;99.90
20803;DHT22;10562;-33.856;151.182;2022-10-23T07:10:26;20.20;99.90
20803;DHT22;10562;-33.856;151.182;2022-10-23T07:12:58;20.20;99.90
20803;DHT22;10562;-33.856;151.182;2022-10-23T07:15:30;20.20;99.90
20803;DHT22;10562;-33.856;151.182;2022-10-23T07:18:00;20.30;99.90
20803;DHT22;10562;-33.856;151.182;2022-10-23T07:20:33;20.30;99.90
20803;DHT22;10562;-33.856;151.182;2022-10-23T07:23:04;20.30;99.90
20803;DHT22;10562;-33.856;151.182;2022-10-23T07:25:35;20.30;99.90
20803;DHT22;10562;-33.856;151.182;2022-10-23T07:28:06;20.30;99.90
20803;DHT22;10562;-33.856;151.182;2022-10-23T07:30:37;20.20;99.90
20803;DHT22;10562;-33.856;151.182;2022-10-23T07:33:08;20.20;99.90
20803;DHT22;10562;-33.856;151.182;2022-10-23T07:35:41;20.20;99.90
20803;DHT22;10562;-33.856;151.182;2022-10-23T07:38:14;20.10;99.90
20803;DHT22;10562;-33.856;151.182;2022-10-23T07:40:45;20.00;99.90
20803;DHT22;10562;-33.856;151.182;2022-10-23T07:43:16;20.00;99.90
20803;DHT22;10562;-33.856;151.182;2022-10-23T07:45:48;19.90;99.90
20803;DHT22;10562;-33.856;151.182;2022-10-23T07:48:19;19.90;99.90
20803;DHT22;10562;-33.856;151.182;2022-10-23T07:50:53;19.80;99.90
20803;DHT22;10562;-33.856;151.182;2022-10-23T07:53:27;19.80;99.90
20803;DHT22;10562;-33.856;151.182;2022-10-23T07:56:00;19.70;99.90
20803;DHT22;10562;-33.856;151.182;2022-10-23T07:58:31;19.60;99.90
20803;DHT22;10562;-33.856;151.182;2022-10-23T08:01:03;19.40;99.90
20803;DHT22;10562;-33.856;151.182;2022-10-23T08:03:34;19.40;99.90
20803;DHT22;10562;-33.856;151.182;2022-10-23T08:06:07;19.30;99.90
20803;DHT22;10562;-33.856;151.182;2022-10-23T08:08:37;19.20;99.90
20803;DHT22;10562;-33.856;151.182;2022-10-23T08:11:10;19.20;99.90
20803;DHT22;10562;-33.856;151.182;2022-10-23T08:13:42;19.10;99.90
20803;DHT22;10562;-33.856;151.182;2022-10-23T08:16:12;19.10;99.90
20803;DHT22;10562;-33.856;151.182;2022-10-23T08:18:43;19.10;99.90
20803;DHT22;10562;-33.856;151.182;2022-10-23T08:21:18;19.00;99.90
20803;DHT22;10562;-33.856;151.182;2022-10-23T08:23:51;19.00;99.90
20803;DHT22;10562;-33.856;151.182;2022-10-23T08:26:23;19.00;99.90
20803;DHT22;10562;-33.856;151.182;2022-10-23T08:28:54;19.00;99.90
20803;DHT22;10562;-33.856;151.182;2022-10-23T08:31:25;18.90;99.90
20803;DHT22;10562;-33.856;151.182;2022-10-23T08:33:56;18.90;99.90
20803;DHT22;10562;-33.856;151.182;2022-10-23T08:36:29;19.00;99.90
20803;DHT22;10562;-33.856;151.182;2022-10-23T08:39:00;19.00;99.90
20803;DHT22;10562;-33.856;151.182;2022-10-23T08:41:32;19.10;99.90
20803;DHT22;10562;-33.856;151.182;2022-10-23T08:44:08;19.00;99.90
20803;DHT22;10562;-33.856;151.182;2022-10-23T08:46:44;19.10;99.90
20803;DHT22;10562;-33.856;151.182;2022-10-23T08:49:38;19.10;99.90
20803;DHT22;10562;-33.856;151.182;2022-10-23T08:52:18;19.10;99.90
20803;DHT22;10562;-33.856;151.182;2022-10-23T08:55:00;19.10;99.90
20803;DHT22;10562;-33.856;151.182;2022-10-23T08:57:35;19.00;99.90
20803;DHT22;10562;-33.856;151.182;2022-10-23T09:00:14;19.00;99.90
20803;DHT22;10562;-33.856;151.182;2022-10-23T09:02:47;19.00;99.90
20803;DHT22;10562;-33.856;151.182;2022-10-23T09:05:20;19.00;99.90
20803;DHT22;10562;-33.856;151.182;2022-10-23T09:08:12;19.00;99.90
20803;DHT22;10562;-33.856;151.182;2022-10-23T09:11:00;19.00;99.90
20803;DHT22;10562;-33.856;151.182;2022-10-23T09:16:47;18.90;99.90
20803;DHT22;10562;-33.856;151.182;2022-10-23T09:19:21;18.90;99.90
20803;DHT22;10562;-33.856;151.182;2022-10-23T09:21:54;18.80;99.90
20803;DHT22;10562;-33.856;151.182;2022-10-23T09:24:28;18.80;99.90
20803;DHT22;10562;-33.856;151.182;2022-10-23T09:27:00;18.70;99.90
20803;DHT22;10562;-33.856;151.182;2022-10-23T09:29:32;18.70;99.90
20803;DHT22;10562;-33.856;151.182;2022-10-23T09:32:06;18.70;99.90
20803;DHT22;10562;-33.856;151.182;2022-10-23T09:34:37;18.70;99.90
20803;DHT22;10562;-33.856;151.182;2022-10-23T09:37:23;18.70;99.90
20803;DHT22;10562;-33.856;151.182;2022-10-23T09:40:15;18.60;99.90
20803;DHT22;10562;-33.856;151.182;2022-10-23T09:42:57;18.60;99.90
20803;DHT22;10562;-33.856;151.182;2022-10-23T09:45:30;18.70;99.90
20803;DHT22;10562;-33.856;151.182;2022-10-23T09:48:13;18.60;99.90
20803;DHT22;10562;-33.856;151.182;2022-10-23T09:50:49;18.60;99.90
20803;DHT22;10562;-33.856;151.182;2022-10-23T09:53:29;18.60;99.90
20803;DHT22;10562;-33.856;151.182;2022-10-23T09:56:04;18.70;99.90
20803;DHT22;10562;-33.856;151.182;2022-10-23T09:58:41;18.70;99.90
20803;DHT22;10562;-33.856;151.182;2022-10-23T10:01:23;18.70;99.90
20803;DHT22;10562;-33.856;151.182;2022-10-23T10:03:55;18.70;99.90
20803;DHT22;10562;-33.856;151.182;2022-10-23T10:06:28;18.80;99.90
20803;DHT22;10562;-33.856;151.182;2022-10-23T10:08:59;18.80;99.90
20803;DHT22;10562;-33.856;151.182;2022-10-23T10:11:36;18.90;99.90
20803;DHT22;10562;-33.856;151.182;2022-10-23T10:14:32;18.90;99.90
20803;DHT22;10562;-33.856;151.182;2022-10-23T10:17:10;18.80;99.90
20803;DHT22;10562;-33.856;151.182;2022-10-23T10:19:59;18.80;99.90
20803;DHT22;10562;-33.856;151.182;2022-10-23T10:22:37;18.80;99.90
20803;DHT22;10562;-33.856;151.182;2022-10-23T10:25:14;18.80;99.90
20803;DHT22;10562;-33.856;151.182;2022-10-23T10:27:55;18.80;99.90
20803;DHT22;10562;-33.856;151.182;2022-10-23T10:30:35;18.80;99.90
20803;DHT22;10562;-33.856;151.182;2022-10-23T10:33:13;18.80;99.90
20803;DHT22;10562;-33.856;151.182;2022-10-23T10:35:51;18.90;99.90
20803;DHT22;10562;-33.856;151.182;2022-10-23T10:38:38;18.90;99.90
20803;DHT22;10562;-33.856;151.182;2022-10-23T10:41:34;18.90;99.90
20803;DHT22;10562;-33.856;151.182;2022-10-23T10:44:32;18.90;99.90
20803;DHT22;10562;-33.856;151.182;2022-10-23T10:47:13;18.90;99.90
20803;DHT22;10562;-33.856;151.182;2022-10-23T10:49:53;18.90;99.90
20803;DHT22;10562;-33.856;151.182;2022-10-23T10:52:30;18.80;99.90
20803;DHT22;10562;-33.856;151.182;2022-10-23T10:55:12;18.80;99.90
20803;DHT22;10562;-33.856;151.182;2022-10-23T10:57:48;18.80;99.90
20803;DHT22;10562;-33.856;151.182;2022-10-23T11:00:22;18.80;99.90
20803;DHT22;10562;-33.856;151.182;2022-10-23T11:02:56;18.80;99.90
20803;DHT22;10562;-33.856;151.182;2022-10-23T11:05:31;18.80;99.90
20803;DHT22;10562;-33.856;151.182;2022-10-23T11:08:09;18.70;99.90
20803;DHT22;10562;-33.856;151.182;2022-10-23T11:10:44;18.70;99.90
20803;DHT22;10562;-33.856;151.182;2022-10-23T11:13:26;18.70;99.90
20803;DHT22;10562;-33.856;151.182;2022-10-23T11:16:00;18.70;99.90
20803;DHT22;10562;-33.856;151.182;2022-10-23T11:18:32;18.60;99.90
20803;DHT22;10562;-33.856;151.182;2022-10-23T11:21:13;18.60;99.90
20803;DHT22;10562;-33.856;151.182;2022-10-23T11:27:22;18.60;99.90
20803;DHT22;10562;-33.856;151.182;2022-10-23T11:30:17;18.60;99.90
20803;DHT22;10562;-33.856;151.182;2022-10-23T11:36:11;18.70;99.90
20803;DHT22;10562;-33.856;151.182;2022-10-23T11:38:43;18.70;99.90
20803;DHT22;10562;-33.856;151.182;2022-10-23T11:41:20;18.80;99.90
20803;DHT22;10562;-33.856;151.182;2022-10-23T11:43:52;18.80;99.90
20803;DHT22;10562;-33.856;151.182;2022-10-23T11:46:31;18.70;99.90
20803;DHT22;10562;-33.856;151.182;2022-10-23T11:49:05;18.70;99.90
20803;DHT22;10562;-33.856;151.182;2022-10-23T11:52:00;18.80;99.90
20803;DHT22;10562;-33.856;151.182;2022-10-23T11:54:31;18.70;99.90
20803;DHT22;10562;-33.856;151.182;2022-10-23T11:57:12;18.80;99.90
20803;DHT22;10562;-33.856;151.182;2022-10-23T11:59:53;18.80;99.90
20803;DHT22;10562;-33.856;151.182;2022-10-23T12:02:30;18.70;99.90
20803;DHT22;10562;-33.856;151.182;2022-10-23T12:05:07;18.80;99.90
20803;DHT22;10562;-33.856;151.182;2022-10-23T12:07:40;18.80;99.90
20803;DHT22;10562;-33.856;151.182;2022-10-23T12:10:21;18.70;99.90
20803;DHT22;10562;-33.856;151.182;2022-10-23T12:12:57;18.80;99.90
20803;DHT22;10562;-33.856;151.182;2022-10-23T12:15:28;18.80;99.90
20803;DHT22;10562;-33.856;151.182;2022-10-23T12:18:12;18.70;99.90
20803;DHT22;10562;-33.856;151.182;2022-10-23T12:20:50;18.80;99.90
20803;DHT22;10562;-33.856;151.182;2022-10-23T12:29:42;18.90;99.90
20803;DHT22;10562;-33.856;151.182;2022-10-23T12:32:29;18.90;99.90
20803;DHT22;10562;-33.856;151.182;2022-10-23T12:35:18;19.00;99.90
20803;DHT22;10562;-33.856;151.182;2022-10-23T12:38:06;19.00;99.90
20803;DHT22;10562;-33.856;151.182;2022-10-23T12:40:39;19.00;99.90
20803;DHT22;10562;-33.856;151.182;2022-10-23T12:43:25;19.00;99.90
20803;DHT22;10562;-33.856;151.182;2022-10-23T12:45:58;19.00;99.90
20803;DHT22;10562;-33.856;151.182;2022-10-23T12:48:33;19.00;99.90
20803;DHT22;10562;-33.856;151.182;2022-10-23T12:51:04;19.00;99.90
20803;DHT22;10562;-33.856;151.182;2022-10-23T12:53:38;19.10;99.90
20803;DHT22;10562;-33.856;151.182;2022-10-23T12:56:12;19.00;99.90
20803;DHT22;10562;-33.856;151.182;2022-10-23T12:58:48;19.00;99.90
20803;DHT22;10562;-33.856;151.182;2022-10-23T13:01:25;19.00;99.90
20803;DHT22;10562;-33.856;151.182;2022-10-23T13:04:01;19.10;99.90
20803;DHT22;10562;-33.856;151.182;2022-10-23T13:06:34;19.00;99.90
20803;DHT22;10562;-33.856;151.182;2022-10-23T13:09:17;19.00;99.90
20803;DHT22;10562;-33.856;151.182;2022-10-23T13:11:51;19.00;99.90
20803;DHT22;10562;-33.856;151.182;2022-10-23T13:14:34;19.00;99.90
20803;DHT22;10562;-33.856;151.182;2022-10-23T13:17:07;19.00;99.90
20803;DHT22;10562;-33.856;151.182;2022-10-23T13:19:38;19.00;99.90
20803;DHT22;10562;-33.856;151.182;2022-10-23T13:22:16;19.00;99.90
20803;DHT22;10562;-33.856;151.182;2022-10-23T13:24:50;19.00;99.90
20803;DHT22;10562;-33.856;151.182;2022-10-23T13:27:32;19.00;99.90
20803;DHT22;10562;-33.856;151.182;2022-10-23T13:30:03;18.90;99.90
20803;DHT22;10562;-33.856;151.182;2022-10-23T13:32:34;19.00;99.90
20803;DHT22;10562;-33.856;151.182;2022-10-23T13:35:19;19.00;99.90
20803;DHT22;10562;-33.856;151.182;2022-10-23T13:37:50;18.90;99.90
20803;DHT22;10562;-33.856;151.182;2022-10-23T13:40:24;18.90;99.90
20803;DHT22;10562;-33.856;151.182;2022-10-23T13:42:56;18.90;99.90
20803;DHT22;10562;-33.856;151.182;2022-10-23T13:45:27;18.90;99.90
20803;DHT22;10562;-33.856;151.182;2022-10-23T13:47:57;18.90;99.90
20803;DHT22;10562;-33.856;151.182;2022-10-23T13:50:28;18.90;99.90
20803;DHT22;10562;-33.856;151.182;2022-10-23T13:52:59;18.90;99.90
20803;DHT22;10562;-33.856;151.182;2022-10-23T13:55:34;18.90;99.90
20803;DHT22;10562;-33.856;151.182;2022-10-23T13:58:05;18.90;99.90
20803;DHT22;10562;-33.856;151.182;2022-10-23T14:00:37;18.90;99.90
20803;DHT22;10562;-33.856;151.182;2022-10-23T14:03:10;18.90;99.90
20803;DHT22;10562;-33.856;151.182;2022-10-23T14:05:40;18.90;99.90
20803;DHT22;10562;-33.856;151.182;2022-10-23T14:08:11;18.90;99.90
20803;DHT22;10562;-33.856;151.182;2022-10-23T14:10:44;18.90;99.90
20803;DHT22;10562;-33.856;151.182;2022-10-23T14:13:15;18.80;99.90
20803;DHT22;10562;-33.856;151.182;2022-10-23T14:15:53;18.80;99.90
20803;DHT22;10562;-33.856;151.182;2022-10-23T14:18:23;18.80;99.90
20803;DHT22;10562;-33.856;151.182;2022-10-23T14:20:55;18.80;99.90
20803;DHT22;10562;-33.856;151.182;2022-10-23T14:23:28;18.80;99.90
20803;DHT22;10562;-33.856;151.182;2022-10-23T14:26:04;18.70;99.90
20803;DHT22;10562;-33.856;151.182;2022-10-23T14:28:36;18.60;99.90
20803;DHT22;10562;-33.856;151.182;2022-10-23T14:31:08;18.70;99.90
20803;DHT22;10562;-33.856;151.182;2022-10-23T14:33:39;18.60;99.90
20803;DHT22;10562;-33.856;151.182;2022-10-23T14:36:11;18.60;99.90
20803;DHT22;10562;-33.856;151.182;2022-10-23T14:38:42;18.60;99.90
20803;DHT22;10562;-33.856;151.182;2022-10-23T14:41:16;18.50;99.90
20803;DHT22;10562;-33.856;151.182;2022-10-23T14:43:47;18.50;99.90
20803;DHT22;10562;-33.856;151.182;2022-10-23T14:46:19;18.30;99.90
20803;DHT22;10562;-33.856;151.182;2022-10-23T14:48:51;18.20;99.90
20803;DHT22;10562;-33.856;151.182;2022-10-23T14:51:23;18.10;99.90
20803;DHT22;10562;-33.856;151.182;2022-10-23T14:53:55;18.00;99.90
20803;DHT22;10562;-33.856;151.182;2022-10-23T14:56:28;17.90;99.90
20803;DHT22;10562;-33.856;151.182;2022-10-23T14:59:00;17.80;99.90
20803;DHT22;10562;-33.856;151.182;2022-10-23T15:01:32;17.70;99.90
20803;DHT22;10562;-33.856;151.182;2022-10-23T15:04:03;17.60;99.90
20803;DHT22;10562;-33.856;151.182;2022-10-23T15:06:35;17.60;99.90
20803;DHT22;10562;-33.856;151.182;2022-10-23T15:09:05;17.60;99.90
20803;DHT22;10562;-33.856;151.182;2022-10-23T15:11:38;17.50;99.90
20803;DHT22;10562;-33.856;151.182;2022-10-23T15:14:09;17.50;99.90
20803;DHT22;10562;-33.856;151.182;2022-10-23T15:16:40;17.50;99.90
20803;DHT22;10562;-33.856;151.182;2022-10-23T15:19:12;17.40;99.90
20803;DHT22;10562;-33.856;151.182;2022-10-23T15:21:43;17.30;99.90
20803;DHT22;10562;-33.856;151.182;2022-10-23T15:24:14;17.20;99.90
20803;DHT22;10562;-33.856;151.182;2022-10-23T15:26:46;17.20;99.90
20803;DHT22;10562;-33.856;151.182;2022-10-23T15:29:19;17.20;99.90
20803;DHT22;10562;-33.856;151.182;2022-10-23T15:31:53;17.20;99.90
20803;DHT22;10562;-33.856;151.182;2022-10-23T15:34:25;17.10;99.90
20803;DHT22;10562;-33.856;151.182;2022-10-23T15:36:57;17.10;99.90
20803;DHT22;10562;-33.856;151.182;2022-10-23T15:39:29;17.10;99.90
20803;DHT22;10562;-33.856;151.182;2022-10-23T15:42:04;17.10;99.90
20803;DHT22;10562;-33.856;151.182;2022-10-23T15:44:36;17.00;99.90
20803;DHT22;10562;-33.856;151.182;2022-10-23T15:47:08;17.00;99.90